createdAt,value
2018-05-06T00:02:24.604Z,4.00
2018-05-06T00:03:24.761Z,4.00
2018-05-06T00:04:24.928Z,4.00
2018-05-06T00:05:46.091Z,4.00
2018-05-06T00:06:25.245Z,4.00
2018-05-06T00:07:25.412Z,4.00
2018-05-06T00:08:25.577Z,4.00
2018-05-06T00:09:25.742Z,4.00
2018-05-06T00:10:25.907Z,4.00
2018-05-06T00:11:26.068Z,4.00
2018-05-06T00:14:08.612Z,4.00
2018-05-06T00:15:08.831Z,4.00
2018-05-06T00:16:08.951Z,4.00
2018-05-06T00:17:09.168Z,4.00
2018-05-06T00:18:09.214Z,4.00
2018-05-06T00:19:09.380Z,4.00
2018-05-06T00:20:09.547Z,4.00
2018-05-06T00:21:09.715Z,4.00
2018-05-06T00:22:09.880Z,4.00
2018-05-06T00:23:10.059Z,4.00
2018-05-06T00:25:42.615Z,4.00
2018-05-06T00:26:42.789Z,4.00
2018-05-06T00:27:43.006Z,4.00
2018-05-06T00:28:43.170Z,4.00
2018-05-06T00:29:43.334Z,4.00
2018-05-06T00:30:43.498Z,4.00
2018-05-06T00:31:43.659Z,4.00
2018-05-06T00:32:43.832Z,4.00
2018-05-06T00:33:51.673Z,4.00
2018-05-06T00:34:44.205Z,4.00
2018-05-06T00:35:44.370Z,4.00
2018-05-06T00:36:44.537Z,4.00
2018-05-06T00:37:44.685Z,4.00
2018-05-06T00:38:44.869Z,4.00
2018-05-06T00:39:45.030Z,4.00
2018-05-06T00:40:45.198Z,4.00
2018-05-06T00:41:45.364Z,4.00
2018-05-06T00:42:45.530Z,4.00
2018-05-06T00:43:45.712Z,4.00
2018-05-06T00:44:45.871Z,4.00
2018-05-06T00:45:46.052Z,4.00
2018-05-06T00:46:46.198Z,4.00
2018-05-06T00:47:46.388Z,4.00
2018-05-06T00:50:28.641Z,4.00
2018-05-06T00:51:28.819Z,4.00
2018-05-06T00:52:28.979Z,4.00
2018-05-06T00:53:29.132Z,4.00
2018-05-06T00:54:29.301Z,4.00
2018-05-06T00:55:29.466Z,4.00
2018-05-06T00:56:29.635Z,4.00
2018-05-06T00:57:29.796Z,4.00
2018-05-06T00:58:29.967Z,4.00
2018-05-06T00:59:30.130Z,4.00
2018-05-06T01:02:12.718Z,4.00
2018-05-06T01:03:12.885Z,4.00
2018-05-06T01:04:13.055Z,4.00
2018-05-06T01:05:13.234Z,4.00
2018-05-06T01:06:13.387Z,4.00
2018-05-06T01:07:13.548Z,4.00
2018-05-06T01:08:13.715Z,4.00
2018-05-06T01:09:13.872Z,4.00
2018-05-06T01:10:14.044Z,4.00
2018-05-06T01:11:14.202Z,4.00
2018-05-06T01:13:46.492Z,4.00
2018-05-06T01:14:46.658Z,4.00
2018-05-06T01:15:46.827Z,4.00
2018-05-06T01:16:46.991Z,4.00
2018-05-06T01:17:47.158Z,4.00
2018-05-06T01:18:47.311Z,4.00
2018-05-06T01:19:47.500Z,4.00
2018-05-06T01:20:47.668Z,8.00
2018-05-06T01:21:47.824Z,4.00
2018-05-06T01:22:47.994Z,8.00
2018-05-06T01:23:48.157Z,8.00
2018-05-06T01:24:48.329Z,4.00
2018-05-06T01:25:48.488Z,4.00
2018-05-06T01:26:48.655Z,4.00
2018-05-06T01:27:48.819Z,4.00
2018-05-06T01:30:31.376Z,4.00
2018-05-06T01:31:31.546Z,4.00
2018-05-06T01:32:31.716Z,4.00
2018-05-06T01:33:31.879Z,4.00
2018-05-06T01:34:32.045Z,4.00
2018-05-06T01:35:32.211Z,4.00
2018-05-06T01:36:32.375Z,4.00
2018-05-06T01:37:32.541Z,4.00
2018-05-06T01:38:32.712Z,4.00
2018-05-06T01:39:32.869Z,4.00
2018-05-06T01:40:33.050Z,4.00
2018-05-06T01:41:33.204Z,4.00
2018-05-06T01:42:33.368Z,4.00
2018-05-06T01:43:33.537Z,4.00
2018-05-06T01:44:33.703Z,4.00
2018-05-06T01:47:15.966Z,4.00
2018-05-06T01:48:16.131Z,4.00
2018-05-06T01:49:16.299Z,4.00
2018-05-06T01:50:16.464Z,4.00
2018-05-06T01:51:16.631Z,4.00
2018-05-06T01:52:16.800Z,4.00
2018-05-06T01:53:16.964Z,4.00
2018-05-06T01:54:17.129Z,4.00
2018-05-06T01:55:17.296Z,4.00
2018-05-06T01:56:17.455Z,4.00
2018-05-06T01:57:17.623Z,4.00
2018-05-06T01:58:17.796Z,4.00
2018-05-06T01:59:17.957Z,4.00
2018-05-06T02:00:18.114Z,4.00
2018-05-06T02:01:18.280Z,4.00
2018-05-06T02:04:00.553Z,4.00
2018-05-06T02:05:00.728Z,4.00
2018-05-06T02:06:00.878Z,4.00
2018-05-06T02:07:01.060Z,4.00
2018-05-06T02:08:01.226Z,4.00
2018-05-06T02:09:01.384Z,4.00
2018-05-06T02:10:01.559Z,4.00
2018-05-06T02:11:01.717Z,4.00
2018-05-06T02:12:01.884Z,4.00
2018-05-06T02:13:02.049Z,4.00
2018-05-06T02:15:44.314Z,4.00
2018-05-06T02:16:44.484Z,4.00
2018-05-06T02:17:44.653Z,4.00
2018-05-06T02:18:44.819Z,4.00
2018-05-06T02:19:44.980Z,4.00
2018-05-06T02:20:45.142Z,4.00
2018-05-06T02:21:45.309Z,4.00
2018-05-06T02:22:45.472Z,4.00
2018-05-06T02:23:45.651Z,4.00
2018-05-06T02:24:45.815Z,4.00
2018-05-06T02:25:47.835Z,4.00
2018-05-06T02:26:46.852Z,4.00
2018-05-06T02:27:46.263Z,4.00
2018-05-06T02:28:46.432Z,4.00
2018-05-06T02:29:46.601Z,4.00
2018-05-06T02:32:28.850Z,4.00
2018-05-06T02:33:29.013Z,4.00
2018-05-06T02:34:29.171Z,4.00
2018-05-06T02:35:29.343Z,4.00
2018-05-06T02:36:29.511Z,4.00
2018-05-06T02:37:29.673Z,4.00
2018-05-06T02:38:29.834Z,4.00
2018-05-06T02:39:30.003Z,4.00
2018-05-06T02:40:30.159Z,4.00
2018-05-06T02:41:30.322Z,4.00
2018-05-06T02:42:30.490Z,4.00
2018-05-06T02:43:33.395Z,4.00
2018-05-06T02:44:30.798Z,4.00
2018-05-06T02:45:30.975Z,4.00
2018-05-06T02:46:31.136Z,4.00
2018-05-06T02:49:03.488Z,4.00
2018-05-06T02:50:03.685Z,4.00
2018-05-06T02:51:04.437Z,4.00
2018-05-06T02:52:03.969Z,4.00
2018-05-06T02:53:04.148Z,4.00
2018-05-06T02:54:04.295Z,4.00
2018-05-06T02:55:04.464Z,4.00
2018-05-06T02:56:04.623Z,4.00
2018-05-06T02:57:04.791Z,4.00
2018-05-06T02:58:04.948Z,4.00
2018-05-06T02:59:05.099Z,4.00
2018-05-06T03:00:05.267Z,4.00
2018-05-06T03:01:05.432Z,4.00
2018-05-06T03:02:05.591Z,4.00
2018-05-06T03:03:05.756Z,4.00
2018-05-06T03:05:48.031Z,4.00
2018-05-06T03:06:48.194Z,4.00
2018-05-06T03:07:48.366Z,4.00
2018-05-06T03:08:48.518Z,4.00
2018-05-06T03:09:48.679Z,4.00
2018-05-06T03:10:48.863Z,4.00
2018-05-06T03:11:49.045Z,0.00
2018-05-06T03:12:49.211Z,0.00
2018-05-06T03:13:49.385Z,4.00
2018-05-06T03:14:49.553Z,4.00
2018-05-06T03:15:49.717Z,4.00
2018-05-06T03:16:49.882Z,4.00
2018-05-06T03:17:50.073Z,4.00
2018-05-06T03:18:50.222Z,4.00
2018-05-06T03:19:50.372Z,4.00
2018-05-06T03:22:32.923Z,8.00
2018-05-06T03:23:33.090Z,4.00
2018-05-06T03:24:33.247Z,4.00
2018-05-06T03:25:33.422Z,8.00
2018-05-06T03:26:33.596Z,4.00
2018-05-06T03:27:33.764Z,8.00
2018-05-06T03:28:33.914Z,4.00
2018-05-06T03:29:34.082Z,4.00
2018-05-06T03:30:34.249Z,8.00
2018-05-06T03:31:34.454Z,8.00
2018-05-06T03:32:34.618Z,8.00
2018-05-06T03:33:34.779Z,12.00
2018-05-06T03:34:34.949Z,12.00
2018-05-06T03:35:35.115Z,12.00
2018-05-06T03:36:35.277Z,16.00
2018-05-06T03:39:17.919Z,20.00
2018-05-06T03:40:18.094Z,20.00
2018-05-06T03:41:18.258Z,24.00
2018-05-06T03:42:18.415Z,28.00
2018-05-06T03:43:18.598Z,28.00
2018-05-06T03:44:18.733Z,32.00
2018-05-06T03:45:18.910Z,32.00
2018-05-06T03:46:19.053Z,40.00
2018-05-06T03:47:19.208Z,40.00
2018-05-06T03:48:19.383Z,48.00
2018-05-06T03:51:01.926Z,56.00
2018-05-06T03:52:02.096Z,60.00
2018-05-06T03:53:02.253Z,64.00
2018-05-06T03:54:02.424Z,68.00
2018-05-06T03:55:02.593Z,72.00
2018-05-06T03:56:02.732Z,76.00
2018-05-06T03:57:02.905Z,80.00
2018-05-06T03:58:03.064Z,84.00
2018-05-06T03:59:03.227Z,92.00
2018-05-06T04:00:03.383Z,96.00
2018-05-06T04:01:03.555Z,100.00
2018-05-06T04:02:03.719Z,108.00
2018-05-06T04:03:03.874Z,112.00
2018-05-06T04:04:04.036Z,116.00
2018-05-06T04:05:04.205Z,124.00
2018-05-06T04:07:36.762Z,140.00
2018-05-06T04:08:36.938Z,148.00
2018-05-06T04:09:37.095Z,152.00
2018-05-06T04:10:37.253Z,156.00
2018-05-06T04:11:37.421Z,164.00
2018-05-06T04:12:38.506Z,168.00
2018-05-06T04:13:37.783Z,172.00
2018-05-06T04:14:37.942Z,180.00
2018-05-06T04:15:38.109Z,188.00
2018-05-06T04:16:38.262Z,192.00
2018-05-06T04:19:20.534Z,212.00
2018-05-06T04:20:20.695Z,216.00
2018-05-06T04:21:20.888Z,220.00
2018-05-06T04:22:21.026Z,228.00
2018-05-06T04:23:21.191Z,236.00
2018-05-06T04:24:21.355Z,244.00
2018-05-06T04:25:21.508Z,248.00
2018-05-06T04:26:21.690Z,256.00
2018-05-06T04:27:21.853Z,260.00
2018-05-06T04:28:22.011Z,272.00
2018-05-06T04:29:22.172Z,276.00
2018-05-06T04:30:22.341Z,284.00
2018-05-06T04:31:22.509Z,292.00
2018-05-06T04:32:22.660Z,296.00
2018-05-06T04:33:22.841Z,304.00
2018-05-06T04:36:05.375Z,324.00
2018-05-06T04:37:05.547Z,332.00
2018-05-06T04:38:05.713Z,340.00
2018-05-06T04:39:05.875Z,348.00
2018-05-06T04:40:06.038Z,356.00
2018-05-06T04:41:06.210Z,364.00
2018-05-06T04:42:06.358Z,372.00
2018-05-06T04:43:06.520Z,384.00
2018-05-06T04:44:06.687Z,392.00
2018-05-06T04:45:06.849Z,404.00
2018-05-06T04:46:07.018Z,412.00
2018-05-06T04:47:07.177Z,420.00
2018-05-06T04:48:07.344Z,432.00
2018-05-06T04:49:07.510Z,444.00
2018-05-06T04:50:07.673Z,456.00
2018-05-06T04:52:49.932Z,484.00
2018-05-06T04:53:50.097Z,496.00
2018-05-06T04:54:50.257Z,512.00
2018-05-06T04:55:50.427Z,516.00
2018-05-06T04:56:50.592Z,528.00
2018-05-06T04:57:50.754Z,540.00
2018-05-06T04:58:50.920Z,552.00
2018-05-06T04:59:51.085Z,564.00
2018-05-06T05:00:51.248Z,576.00
2018-05-06T05:01:51.408Z,592.00
2018-05-06T05:02:51.567Z,604.00
2018-05-06T05:03:51.759Z,620.00
2018-05-06T05:04:51.880Z,636.00
2018-05-06T05:05:52.051Z,652.00
2018-05-06T05:06:52.203Z,668.00
2018-05-06T05:09:24.765Z,704.00
2018-05-06T05:10:24.933Z,720.00
2018-05-06T05:11:25.111Z,736.00
2018-05-06T05:12:25.262Z,756.00
2018-05-06T05:13:25.420Z,768.00
2018-05-06T05:14:25.611Z,784.00
2018-05-06T05:15:25.770Z,800.00
2018-05-06T05:16:25.956Z,816.00
2018-05-06T05:17:26.088Z,836.00
2018-05-06T05:18:26.273Z,852.00
2018-05-06T05:20:58.905Z,900.00
2018-05-06T05:21:59.009Z,920.00
2018-05-06T05:22:59.193Z,944.00
2018-05-06T05:23:59.340Z,964.00
2018-05-06T05:24:59.503Z,984.00
2018-05-06T05:25:59.666Z,1012.00
2018-05-06T05:26:59.896Z,1036.00
2018-05-06T05:27:59.990Z,1064.00
2018-05-06T05:29:00.153Z,1092.00
2018-05-06T05:30:00.325Z,1120.00
2018-05-06T05:32:32.635Z,1204.00
2018-05-06T05:33:32.800Z,1240.00
2018-05-06T05:34:33.058Z,1268.00
2018-05-06T05:35:33.131Z,1312.00
2018-05-06T05:36:33.308Z,1348.00
2018-05-06T05:37:40.932Z,1400.00
2018-05-06T05:38:34.136Z,1444.00
2018-05-06T05:39:33.786Z,1484.00
2018-05-06T05:40:33.955Z,1500.00
2018-05-06T05:41:34.119Z,1544.00
2018-05-06T05:42:34.280Z,1584.00
2018-05-06T05:43:34.442Z,1612.00
2018-05-06T05:44:34.626Z,1656.00
2018-05-06T05:45:34.773Z,1708.00
2018-05-06T05:46:34.932Z,1780.00
2018-05-06T05:47:35.638Z,1884.00
2018-05-06T05:50:17.668Z,2988.00
2018-05-06T05:51:17.832Z,3480.00
2018-05-06T05:52:17.992Z,3864.00
2018-05-06T05:53:18.165Z,4124.00
2018-05-06T05:54:18.368Z,4100.00
2018-05-06T05:55:18.531Z,4232.00
2018-05-06T05:56:18.692Z,4324.00
2018-05-06T05:57:18.860Z,4108.00
2018-05-06T05:58:19.025Z,4024.00
2018-05-06T05:59:19.189Z,4036.00
2018-05-06T06:02:01.438Z,3444.00
2018-05-06T06:03:01.606Z,3620.00
2018-05-06T06:04:02.487Z,3924.00
2018-05-06T06:05:01.901Z,3660.00
2018-05-06T06:06:02.057Z,3620.00
2018-05-06T06:07:02.225Z,6068.00
2018-05-06T06:08:02.398Z,5148.00
2018-05-06T06:09:02.554Z,3312.00
2018-05-06T06:10:02.717Z,3500.00
2018-05-06T06:11:02.886Z,3188.00
2018-05-06T06:12:03.054Z,3184.00
2018-05-06T06:13:03.221Z,3112.00
2018-05-06T06:14:03.391Z,3416.00
2018-05-06T06:15:03.554Z,3696.00
2018-05-06T06:16:03.722Z,3620.00
2018-05-06T06:18:46.276Z,3544.00
2018-05-06T06:19:46.440Z,3260.00
2018-05-06T06:20:46.608Z,3276.00
2018-05-06T06:21:46.778Z,3404.00
2018-05-06T06:22:46.937Z,3484.00
2018-05-06T06:23:47.106Z,3448.00
2018-05-06T06:24:47.272Z,3312.00
2018-05-06T06:25:47.437Z,3320.00
2018-05-06T06:26:47.606Z,3260.00
2018-05-06T06:27:47.773Z,3268.00
2018-05-06T06:28:47.933Z,3268.00
2018-05-06T06:29:48.110Z,3308.00
2018-05-06T06:30:48.276Z,3312.00
2018-05-06T06:31:48.444Z,3356.00
2018-05-06T06:32:48.613Z,3356.00
2018-05-06T06:35:20.908Z,3400.00
2018-05-06T06:36:21.067Z,3368.00
2018-05-06T06:37:21.234Z,3368.00
2018-05-06T06:38:21.483Z,3380.00
2018-05-06T06:39:21.565Z,3400.00
2018-05-06T06:40:21.717Z,3432.00
2018-05-06T06:41:21.887Z,3428.00
2018-05-06T06:42:22.048Z,3468.00
2018-05-06T06:43:22.221Z,3484.00
2018-05-06T06:44:22.382Z,3504.00
2018-05-06T06:45:22.557Z,3548.00
2018-05-06T06:46:22.716Z,3584.00
2018-05-06T06:47:22.883Z,3652.00
2018-05-06T06:48:23.056Z,3716.00
2018-05-06T06:49:23.223Z,3836.00
2018-05-06T06:52:05.789Z,3960.00
2018-05-06T06:53:05.980Z,4008.00
2018-05-06T06:54:06.120Z,5340.00
2018-05-06T06:55:06.292Z,4220.00
2018-05-06T06:56:06.462Z,4004.00
2018-05-06T06:57:06.641Z,4028.00
2018-05-06T06:58:06.797Z,3992.00
2018-05-06T06:59:06.966Z,3988.00
2018-05-06T07:00:07.123Z,3972.00
2018-05-06T07:01:07.306Z,3992.00
2018-05-06T07:03:49.580Z,3984.00
2018-05-06T07:04:49.755Z,4016.00
2018-05-06T07:05:49.937Z,4076.00
2018-05-06T07:06:50.089Z,5560.00
2018-05-06T07:07:50.244Z,7072.00
2018-05-06T07:08:50.408Z,3968.00
2018-05-06T07:09:50.580Z,3976.00
2018-05-06T07:10:50.748Z,3976.00
2018-05-06T07:11:50.912Z,3976.00
2018-05-06T07:12:51.089Z,3956.00
2018-05-06T07:13:51.251Z,3948.00
2018-05-06T07:14:51.435Z,3976.00
2018-05-06T07:15:51.600Z,4000.00
2018-05-06T07:16:51.756Z,4052.00
2018-05-06T07:17:51.925Z,4000.00
2018-05-06T07:20:34.484Z,3952.00
2018-05-06T07:21:34.660Z,3940.00
2018-05-06T07:22:34.821Z,3960.00
2018-05-06T07:23:34.988Z,3932.00
2018-05-06T07:24:35.162Z,4064.00
2018-05-06T07:25:35.327Z,3964.00
2018-05-06T07:26:35.496Z,3988.00
2018-05-06T07:27:35.660Z,4000.00
2018-05-06T07:28:35.822Z,3960.00
2018-05-06T07:29:35.995Z,3928.00
2018-05-06T07:30:36.160Z,3956.00
2018-05-06T07:31:36.330Z,3936.00
2018-05-06T07:32:36.496Z,3948.00
2018-05-06T07:33:36.661Z,4016.00
2018-05-06T07:34:36.831Z,3972.00
2018-05-06T07:37:09.099Z,3952.00
2018-05-06T07:38:09.270Z,3932.00
2018-05-06T07:39:09.450Z,3996.00
2018-05-06T07:40:09.603Z,3980.00
2018-05-06T07:41:09.770Z,3904.00
2018-05-06T07:42:09.938Z,3884.00
2018-05-06T07:43:10.097Z,3876.00
2018-05-06T07:44:10.260Z,3952.00
2018-05-06T07:45:10.427Z,3928.00
2018-05-06T07:46:10.618Z,3980.00
2018-05-06T07:47:10.766Z,3940.00
2018-05-06T07:48:10.924Z,4076.00
2018-05-06T07:49:11.104Z,3900.00
2018-05-06T07:50:11.295Z,3956.00
2018-05-06T07:51:11.461Z,3896.00
2018-05-06T07:53:43.740Z,3936.00
2018-05-06T07:54:43.904Z,3892.00
2018-05-06T07:55:44.078Z,3904.00
2018-05-06T07:56:44.250Z,3908.00
2018-05-06T07:57:44.409Z,3944.00
2018-05-06T07:58:44.632Z,3904.00
2018-05-06T07:59:44.736Z,3908.00
2018-05-06T08:00:44.905Z,3940.00
2018-05-06T08:01:45.080Z,3964.00
2018-05-06T08:02:45.247Z,3836.00
2018-05-06T08:05:27.563Z,3864.00
2018-05-06T08:06:27.734Z,3916.00
2018-05-06T08:08:59.590Z,3964.00
2018-05-06T08:09:59.719Z,3940.00
2018-05-06T08:10:59.887Z,3976.00
2018-05-06T08:12:00.058Z,3904.00
2018-05-06T08:13:00.236Z,4020.00
2018-05-06T08:14:00.401Z,3960.00
2018-05-06T08:15:00.584Z,3944.00
2018-05-06T08:16:00.746Z,3856.00
2018-05-06T08:17:00.910Z,3940.00
2018-05-06T08:18:01.080Z,3980.00
2018-05-06T08:19:01.249Z,3928.00
2018-05-06T08:20:01.415Z,3952.00
2018-05-06T08:21:01.584Z,3916.00
2018-05-06T08:22:01.759Z,3884.00
2018-05-06T08:23:01.932Z,3932.00
2018-05-06T08:25:44.504Z,3900.00
2018-05-06T08:26:44.665Z,3924.00
2018-05-06T08:27:44.834Z,3848.00
2018-05-06T08:28:45.004Z,3888.00
2018-05-06T08:29:45.172Z,3776.00
2018-05-06T08:30:45.338Z,3828.00
2018-05-06T08:31:45.505Z,3852.00
2018-05-06T08:32:45.671Z,3760.00
2018-05-06T08:33:45.844Z,3728.00
2018-05-06T08:34:46.013Z,3780.00
2018-05-06T08:35:46.176Z,3752.00
2018-05-06T08:36:46.343Z,3804.00
2018-05-06T08:37:46.510Z,3708.00
2018-05-06T08:38:46.680Z,3712.00
2018-05-06T08:39:46.847Z,3768.00
2018-05-06T08:42:29.107Z,3752.00
2018-05-06T08:43:29.268Z,3716.00
2018-05-06T08:44:29.438Z,3812.00
2018-05-06T08:45:29.613Z,3884.00
2018-05-06T08:46:29.781Z,3776.00
2018-05-06T08:47:29.946Z,3748.00
2018-05-06T08:48:30.125Z,3784.00
2018-05-06T08:49:30.287Z,3740.00
2018-05-06T08:50:30.472Z,3720.00
2018-05-06T08:51:30.714Z,3752.00
2018-05-06T08:52:30.862Z,3632.00
2018-05-06T08:53:30.976Z,3628.00
2018-05-06T08:54:31.135Z,3616.00
2018-05-06T08:55:31.319Z,3652.00
2018-05-06T08:56:31.491Z,3636.00
2018-05-06T08:59:14.068Z,3592.00
2018-05-06T09:00:14.233Z,3588.00
2018-05-06T09:01:14.387Z,3640.00
2018-05-06T09:02:14.554Z,3596.00
2018-05-06T09:03:14.730Z,3548.00
2018-05-06T09:04:14.882Z,3556.00
2018-05-06T09:05:15.052Z,3656.00
2018-05-06T09:06:15.220Z,3560.00
2018-05-06T09:07:15.387Z,3760.00
2018-05-06T09:08:15.555Z,3520.00
2018-05-06T09:09:15.721Z,3516.00
2018-05-06T09:10:15.891Z,3516.00
2018-05-06T09:11:16.073Z,3556.00
2018-05-06T09:12:16.233Z,3556.00
2018-05-06T09:13:16.405Z,3580.00
2018-05-06T09:15:58.991Z,3448.00
2018-05-06T09:16:59.164Z,3320.00
2018-05-06T09:17:59.326Z,3424.00
2018-05-06T09:18:59.495Z,3452.00
2018-05-06T09:19:59.728Z,3548.00
2018-05-06T09:20:59.785Z,3420.00
2018-05-06T09:21:59.954Z,3496.00
2018-05-06T09:23:00.123Z,3356.00
2018-05-06T09:24:00.284Z,3424.00
2018-05-06T09:25:00.460Z,3364.00
2018-05-06T09:27:44.061Z,3400.00
2018-05-06T09:28:45.765Z,3448.00
2018-05-06T09:29:43.429Z,3312.00
2018-05-06T09:30:43.586Z,3352.00
2018-05-06T09:31:43.755Z,3388.00
2018-05-06T09:32:43.934Z,3420.00
2018-05-06T09:33:44.095Z,3480.00
2018-05-06T09:34:44.264Z,3360.00
2018-05-06T09:35:44.433Z,3376.00
2018-05-06T09:36:44.603Z,3280.00
2018-05-06T09:37:44.779Z,3228.00
2018-05-06T09:38:44.973Z,3664.00
2018-05-06T09:39:45.134Z,3344.00
2018-05-06T09:40:45.310Z,3304.00
2018-05-06T09:41:45.494Z,3432.00
2018-05-06T09:45:56.088Z,3404.00
2018-05-06T09:46:56.253Z,3360.00
2018-05-06T09:47:56.475Z,3216.00
2018-05-06T09:48:57.373Z,3252.00
2018-05-06T09:49:56.793Z,3248.00
2018-05-06T09:50:56.962Z,3260.00
2018-05-06T09:51:57.130Z,3292.00
2018-05-06T09:52:57.300Z,3100.00
2018-05-06T09:53:57.468Z,3256.00
2018-05-06T09:54:57.637Z,3444.00
2018-05-06T09:55:57.806Z,3104.00
2018-05-06T09:56:57.976Z,3400.00
2018-05-06T09:57:58.145Z,3120.00
2018-05-06T09:58:58.297Z,3236.00
2018-05-06T09:59:58.463Z,3280.00
2018-05-06T10:02:41.047Z,3348.00
2018-05-06T10:03:41.214Z,3396.00
2018-05-06T10:04:41.387Z,3328.00
2018-05-06T10:05:41.557Z,3460.00
2018-05-06T10:06:41.725Z,3376.00
2018-05-06T10:07:41.956Z,3416.00
2018-05-06T10:08:41.999Z,3332.00
2018-05-06T10:09:42.168Z,3236.00
2018-05-06T10:10:42.334Z,3300.00
2018-05-06T10:11:42.503Z,3340.00
2018-05-06T10:12:42.746Z,3000.00
2018-05-06T10:13:42.830Z,3188.00
2018-05-06T10:14:43.121Z,3104.00
2018-05-06T10:15:43.224Z,3204.00
2018-05-06T10:16:43.371Z,3376.00
2018-05-06T10:19:25.660Z,3072.00
2018-05-06T10:20:25.924Z,3060.00
2018-05-06T10:21:25.969Z,3040.00
2018-05-06T10:22:26.136Z,3208.00
2018-05-06T10:23:26.320Z,3136.00
2018-05-06T10:24:26.486Z,3056.00
2018-05-06T10:25:26.656Z,3048.00
2018-05-06T10:26:26.823Z,3292.00
2018-05-06T10:27:26.999Z,3340.00
2018-05-06T10:28:27.179Z,3328.00
2018-05-06T10:29:27.347Z,3460.00
2018-05-06T10:30:27.518Z,3252.00
2018-05-06T10:31:27.683Z,3288.00
2018-05-06T10:32:27.850Z,3344.00
2018-05-06T10:33:28.026Z,3396.00
2018-05-06T10:36:10.856Z,3240.00
2018-05-06T10:37:10.779Z,3212.00
2018-05-06T10:38:10.953Z,3260.00
2018-05-06T10:39:11.120Z,3328.00
2018-05-06T10:40:11.289Z,3296.00
2018-05-06T10:41:11.464Z,3272.00
2018-05-06T10:42:11.628Z,3268.00
2018-05-06T10:43:11.797Z,3112.00
2018-05-06T10:44:12.114Z,3072.00
2018-05-06T10:45:12.137Z,2940.00
2018-05-06T10:46:12.600Z,2984.00
2018-05-06T10:47:12.482Z,2920.00
2018-05-06T10:48:12.617Z,2872.00
2018-05-06T10:49:12.852Z,2872.00
2018-05-06T10:50:12.953Z,2936.00
2018-05-06T10:52:55.519Z,2888.00
2018-05-06T10:53:55.689Z,2976.00
2018-05-06T10:54:55.857Z,2700.00
2018-05-06T10:55:56.072Z,2828.00
2018-05-06T10:57:03.895Z,2836.00
2018-05-06T10:57:56.383Z,2808.00
2018-05-06T10:58:56.476Z,2784.00
2018-05-06T10:59:56.650Z,3120.00
2018-05-06T11:00:56.829Z,2708.00
2018-05-06T11:01:57.031Z,2628.00
2018-05-06T11:03:05.170Z,2652.00
2018-05-06T11:03:57.392Z,2652.00
2018-05-06T11:04:57.502Z,2660.00
2018-05-06T11:05:57.676Z,2724.00
2018-05-06T11:06:57.850Z,2628.00
2018-05-06T11:07:58.013Z,2688.00
2018-05-06T11:08:58.179Z,2768.00
2018-05-06T11:09:58.351Z,2692.00
2018-05-06T11:10:58.520Z,2772.00
2018-05-06T11:11:58.848Z,2624.00
2018-05-06T11:12:59.756Z,2560.00
2018-05-06T11:15:41.509Z,2556.00
2018-05-06T11:16:41.668Z,2580.00
2018-05-06T11:17:41.853Z,2820.00
2018-05-06T11:18:42.016Z,2564.00
2018-05-06T11:19:42.181Z,2536.00
2018-05-06T11:20:42.355Z,2488.00
2018-05-06T11:21:42.510Z,2488.00
2018-05-06T11:22:42.680Z,2544.00
2018-05-06T11:23:42.849Z,2536.00
2018-05-06T11:24:43.021Z,2476.00
2018-05-06T11:25:43.190Z,2568.00
2018-05-06T11:26:43.356Z,2680.00
2018-05-06T11:27:45.226Z,2500.00
2018-05-06T11:28:43.642Z,2428.00
2018-05-06T11:29:43.812Z,2632.00
2018-05-06T11:32:16.104Z,2512.00
2018-05-06T11:33:16.348Z,2516.00
2018-05-06T11:34:16.451Z,2504.00
2018-05-06T11:35:16.622Z,2604.00
2018-05-06T11:36:16.784Z,2516.00
2018-05-06T11:37:16.993Z,2480.00
2018-05-06T11:38:17.132Z,2624.00
2018-05-06T11:39:17.296Z,2592.00
2018-05-06T11:40:17.489Z,2548.00
2018-05-06T11:41:17.650Z,2628.00
2018-05-06T11:42:17.816Z,2672.00
2018-05-06T11:43:17.990Z,2400.00
2018-05-06T11:44:18.230Z,2336.00
2018-05-06T11:45:18.324Z,2392.00
2018-05-06T11:46:18.493Z,2384.00
2018-05-06T11:49:01.347Z,2320.00
2018-05-06T11:50:08.859Z,2348.00
2018-05-06T11:51:01.023Z,2340.00
2018-05-06T11:52:01.193Z,2360.00
2018-05-06T11:53:01.364Z,2700.00
2018-05-06T11:54:09.478Z,2400.00
2018-05-06T11:55:01.641Z,2336.00
2018-05-06T11:56:01.811Z,2304.00
2018-05-06T11:57:01.975Z,2392.00
2018-05-06T11:58:04.822Z,2308.00
2018-05-06T11:59:02.372Z,2296.00
2018-05-06T12:00:02.543Z,2324.00
2018-05-06T12:01:02.709Z,2268.00
2018-05-06T12:02:02.888Z,2284.00
2018-05-06T12:03:03.057Z,2284.00
2018-05-06T12:04:03.229Z,2304.00
2018-05-06T12:05:03.397Z,2296.00
2018-05-06T12:06:03.565Z,2280.00
2018-05-06T12:07:03.733Z,2424.00
2018-05-06T12:08:03.902Z,2416.00
2018-05-06T12:09:04.079Z,2332.00
2018-05-06T12:14:35.140Z,2304.00
2018-05-06T12:15:36.611Z,2308.00
2018-05-06T12:16:35.154Z,2248.00
2018-05-06T12:17:35.316Z,2244.00
2018-05-06T12:18:35.487Z,2264.00
2018-05-06T12:19:35.650Z,2264.00
2018-05-06T12:20:35.824Z,2280.00
2018-05-06T12:21:35.989Z,2264.00
2018-05-06T12:22:36.154Z,2348.00
2018-05-06T12:23:36.319Z,2320.00
2018-05-06T12:24:36.494Z,2256.00
2018-05-06T12:25:36.659Z,2272.00
2018-05-06T12:26:36.826Z,2232.00
2018-05-06T12:27:36.995Z,2248.00
2018-05-06T12:28:37.164Z,2300.00
2018-05-06T12:31:19.743Z,2364.00
2018-05-06T12:32:19.912Z,2392.00
2018-05-06T12:33:20.148Z,2288.00
2018-05-06T12:34:20.290Z,2288.00
2018-05-06T12:35:20.450Z,2324.00
2018-05-06T12:36:20.659Z,2240.00
2018-05-06T12:37:27.943Z,2320.00
2018-05-06T12:38:20.986Z,2224.00
2018-05-06T12:39:21.161Z,2268.00
2018-05-06T12:40:21.334Z,2288.00
2018-05-06T12:41:21.503Z,2264.00
2018-05-06T12:42:21.673Z,2300.00
2018-05-06T12:43:21.927Z,2340.00
2018-05-06T12:44:22.011Z,2204.00
2018-05-06T12:45:22.176Z,2204.00
2018-05-06T12:46:22.343Z,2236.00
2018-05-06T12:47:25.488Z,2236.00
2018-05-06T12:48:22.881Z,2304.00
2018-05-06T12:49:22.914Z,2236.00
2018-05-06T12:50:23.013Z,2228.00
2018-05-06T12:51:31.201Z,2272.00
2018-05-06T12:52:23.401Z,2236.00
2018-05-06T12:53:23.574Z,2248.00
2018-05-06T12:54:23.743Z,2444.00
2018-05-06T12:56:55.948Z,2236.00
2018-05-06T12:57:56.090Z,2252.00
2018-05-06T12:58:56.211Z,2260.00
2018-05-06T12:59:56.405Z,2276.00
2018-05-06T13:00:56.574Z,2248.00
2018-05-06T13:01:56.752Z,2232.00
2018-05-06T13:03:04.379Z,2260.00
2018-05-06T13:03:57.318Z,2280.00
2018-05-06T13:04:57.269Z,2296.00
2018-05-06T13:05:57.443Z,2312.00
2018-05-06T13:06:57.627Z,2256.00
2018-05-06T13:07:57.832Z,2332.00
2018-05-06T13:08:58.246Z,2548.00
2018-05-06T13:09:58.208Z,2212.00
2018-05-06T13:10:58.300Z,2228.00
2018-05-06T13:11:58.484Z,2216.00
2018-05-06T13:12:58.678Z,2196.00
2018-05-06T13:13:58.858Z,2168.00
2018-05-06T13:14:59.008Z,2252.00
2018-05-06T13:15:59.177Z,2244.00
2018-05-06T13:16:59.343Z,2212.00
2018-05-06T13:19:31.624Z,2196.00
2018-05-06T13:20:31.785Z,2236.00
2018-05-06T13:21:31.965Z,2204.00
2018-05-06T13:22:32.138Z,2228.00
2018-05-06T13:23:32.324Z,2232.00
2018-05-06T13:24:32.481Z,2256.00
2018-05-06T13:25:32.638Z,2204.00
2018-05-06T13:26:32.811Z,2292.00
2018-05-06T13:27:32.979Z,2216.00
2018-05-06T13:28:33.794Z,2256.00
2018-05-06T13:29:33.419Z,2256.00
2018-05-06T13:32:14.399Z,2300.00
2018-05-06T13:33:14.581Z,2316.00
2018-05-06T13:34:15.088Z,2240.00
2018-05-06T13:35:14.901Z,2216.00
2018-05-06T13:36:15.075Z,2292.00
2018-05-06T13:37:15.841Z,2224.00
2018-05-06T13:38:15.395Z,2228.00
2018-05-06T13:39:15.569Z,2204.00
2018-05-06T13:40:15.848Z,2236.00
2018-05-06T13:41:16.041Z,2212.00
2018-05-06T13:42:16.943Z,2212.00
2018-05-06T13:43:16.228Z,2304.00
2018-05-06T13:44:16.398Z,2212.00
2018-05-06T13:45:24.534Z,2152.00
2018-05-06T13:46:16.757Z,2180.00
2018-05-06T13:47:16.878Z,2268.00
2018-05-06T13:48:17.043Z,2200.00
2018-05-06T13:49:24.700Z,2380.00
2018-05-06T13:50:17.444Z,2188.00
2018-05-06T13:51:17.539Z,2188.00
2018-05-06T13:52:17.716Z,2224.00
2018-05-06T13:53:19.252Z,2160.00
2018-05-06T13:54:18.125Z,2344.00
2018-05-06T13:55:18.287Z,2260.00
2018-05-06T13:56:18.696Z,2172.00
2018-05-06T13:57:18.755Z,2324.00
2018-05-06T13:58:18.838Z,2368.00
2018-05-06T13:59:19.884Z,2300.00